Philadelphia, Mississippi
Current Conditions -  °F | °C
As of 12:56 PM on Thursday 23 Oct 2014 (Local Time) from KNMM Reporting Station
Few Clouds Few Clouds  
Wind Chill: 68°   Ceiling: Unl
Heat Index: 68°   Visibility: 10mi
Dew Point: 42°   Wind: 5mph
Humidity: 39%   Direction: NA
Pressure: 30.12"   Gusts: NA
Location:  32.77°N, 89.12°W
Report Text: KNMM 231756Z VRB04KT 10SM FEW250 20/06 A3012 RMK AO2 SLP210 T02000056 10206 20039 58018 $
Loading
Personal Weather Stations






























Interactive Weather Map
Tropical Storm Tracking
New forecast layout! Learn more

10-Day Weather Forecast

Advertisements
Track Severe Weather on mobile